Time;durP1;ratioP1;P1;durP2;ratioP2;P2;SDS_P1;SDS_P2;PMS_P1;PMS_P2;Temp;Humidity;BMP_temperature;BMP_pressure;BME280_temperature;BME280_humidity;BME280_pressure;Samples;Min_cycle;Max_cycle;Signal;HPM_P1;HPM_P2
2020/12/10 00:01:47;;;;;;;36.77;22.20;;;2.00;87.20;;;;;;5133155;27;20054;-78
2020/12/10 00:04:13;;;;;;;33.37;20.87;;;2.00;86.80;;;;;;5098612;27;20023;-78
2020/12/10 00:06:39;;;;;;;35.47;21.10;;;1.90;86.80;;;;;;5133640;27;20035;-78
2020/12/10 00:09:05;;;;;;;35.73;20.57;;;1.70;86.70;;;;;;5115097;27;20062;-78
2020/12/10 00:11:34;;;;;;;37.23;21.00;;;1.50;86.90;;;;;;5061051;28;20059;-77
2020/12/10 00:13:59;;;;;;;37.37;21.60;;;1.40;87.10;;;;;;5112116;28;20020;-77
2020/12/10 00:16:25;;;;;;;36.07;21.17;;;1.30;87.30;;;;;;5095354;28;20034;-78
2020/12/10 00:18:51;;;;;;;38.50;22.13;;;1.20;87.30;;;;;;5094021;28;20035;-78
2020/12/10 00:21:21;;;;;;;40.67;22.30;;;1.10;87.10;;;;;;5094999;28;20024;-78
2020/12/10 00:23:46;;;;;;;38.47;22.40;;;1.20;87.60;;;;;;5094100;28;20043;-78
2020/12/10 00:26:13;;;;;;;35.50;21.47;;;1.20;87.90;;;;;;5078152;28;20038;-78
2020/12/10 00:28:38;;;;;;;39.07;22.43;;;1.30;87.90;;;;;;5077362;28;20043;-78
2020/12/10 00:31:04;;;;;;;38.80;22.13;;;1.30;87.80;;;;;;5115097;27;20031;-78
2020/12/10 00:33:30;;;;;;;43.70;22.60;;;1.40;87.80;;;;;;5133346;27;20031;-78
2020/12/10 00:35:56;;;;;;;34.63;21.17;;;1.40;87.90;;;;;;5097890;27;20481;-78
2020/12/10 00:38:21;;;;;;;35.27;20.60;;;1.40;87.90;;;;;;5115227;27;20039;-78
2020/12/10 00:40:47;;;;;;;36.93;21.03;;;1.40;87.70;;;;;;5096887;27;20115;-78
2020/12/10 00:43:13;;;;;;;37.97;21.40;;;1.30;87.60;;;;;;5114833;27;20023;-78
2020/12/10 00:45:38;;;;;;;38.33;21.90;;;1.20;87.90;;;;;;5112532;27;20463;-78
2020/12/10 00:48:04;;;;;;;39.90;21.80;;;1.20;88.00;;;;;;5097608;27;20038;-77
2020/12/10 00:50:30;;;;;;;40.27;23.17;;;1.10;87.90;;;;;;5097422;27;20359;-78
2020/12/10 00:52:56;;;;;;;36.83;20.87;;;1.00;88.00;;;;;;5113926;27;20033;-78
2020/12/10 00:55:21;;;;;;;38.20;22.00;;;1.00;88.20;;;;;;5133260;27;20023;-78
2020/12/10 00:57:49;;;;;;;41.27;23.10;;;1.00;88.20;;;;;;5114802;27;20039;-78
2020/12/10 01:00:17;;;;;;;41.20;22.40;;;0.90;88.00;;;;;;5097630;27;20051;-78
2020/12/10 01:02:43;;;;;;;44.00;23.87;;;0.80;88.10;;;;;;5118004;27;20103;-78
2020/12/10 01:05:08;;;;;;;45.43;24.90;;;0.70;88.30;;;;;;5093935;28;20066;-78
2020/12/10 01:07:34;;;;;;;45.93;23.73;;;0.70;88.40;;;;;;5092923;28;20118;-78
2020/12/10 01:10:02;;;;;;;45.83;24.53;;;0.60;88.40;;;;;;5093736;28;20027;-78
2020/12/10 01:12:28;;;;;;;41.43;23.43;;;0.50;88.30;;;;;;5093825;28;20119;-78
2020/12/10 01:14:54;;;;;;;43.33;24.20;;;0.50;88.60;;;;;;5111081;28;20189;-77
2020/12/10 01:17:19;;;;;;;44.83;24.37;;;0.50;88.70;;;;;;5093775;28;20482;-77
2020/12/10 01:19:45;;;;;;;48.07;25.43;;;0.40;88.60;;;;;;5111000;28;20035;-77
2020/12/10 01:22:10;;;;;;;45.10;24.20;;;0.40;88.70;;;;;;5111656;28;20490;-78
2020/12/10 01:24:36;;;;;;;49.37;24.57;;;0.30;88.60;;;;;;5075853;28;20035;-78
2020/12/10 01:27:01;;;;;;;50.03;25.47;;;0.30;88.60;;;;;;5059430;28;20019;-78
2020/12/10 01:29:27;;;;;;;46.90;24.97;;;0.30;88.60;;;;;;5097369;27;20030;-77
2020/12/10 01:31:53;;;;;;;49.10;24.00;;;0.20;88.50;;;;;;5096193;27;20292;-77
2020/12/10 01:34:19;;;;;;;42.30;23.40;;;0.10;88.50;;;;;;5113607;27;20027;-77
2020/12/10 01:36:45;;;;;;;43.70;23.60;;;0.00;88.60;;;;;;5096329;27;20035;-77
2020/12/10 01:39:11;;;;;;;40.93;22.13;;;0.00;88.60;;;;;;5098695;27;20527;-77
2020/12/10 01:41:36;;;;;;;45.73;23.17;;;0.00;88.70;;;;;;5113423;27;20019;-77
2020/12/10 01:44:11;;;;;;;47.67;25.13;;;-0.10;88.90;;;;;;5113789;27;20020;-77
2020/12/10 01:46:38;;;;;;;45.03;23.27;;;0.00;89.00;;;;;;5113125;27;20343;-78
2020/12/10 01:49:08;;;;;;;46.73;23.10;;;-0.10;88.90;;;;;;5113189;27;20027;-78
2020/12/10 01:51:34;;;;;;;41.17;21.80;;;0.00;89.10;;;;;;5119803;27;20030;-77
2020/12/10 01:54:02;;;;;;;43.13;22.20;;;-0.10;89.00;;;;;;5131448;27;20015;-77
2020/12/10 01:56:28;;;;;;;38.70;21.37;;;-0.10;89.00;;;;;;5113616;27;20050;-78
2020/12/10 01:58:55;;;;;;;42.43;21.43;;;-0.10;89.10;;;;;;5112106;27;20490;-77
2020/12/10 02:01:21;;;;;;;39.00;20.20;;;-0.10;89.10;;;;;;5113132;27;20047;-77
2020/12/10 02:03:46;;;;;;;34.57;18.43;;;-0.20;89.00;;;;;;5113328;27;20031;-77
2020/12/10 02:06:12;;;;;;;40.03;20.10;;;-0.20;89.00;;;;;;5113088;27;20035;-78
2020/12/10 02:08:42;;;;;;;40.47;19.67;;;-0.20;89.10;;;;;;5111834;27;20031;-78
2020/12/10 02:11:09;;;;;;;42.77;20.17;;;-0.20;89.30;;;;;;5114002;27;20032;-78
2020/12/10 02:13:34;;;;;;;37.60;18.90;;;-0.10;89.20;;;;;;5113193;27;20309;-77
2020/12/10 02:16:00;;;;;;;34.60;17.83;;;0.00;89.30;;;;;;5095951;28;20261;-78
2020/12/10 02:18:27;;;;;;;34.83;17.97;;;0.10;89.20;;;;;;5112329;27;20467;-78
2020/12/10 02:20:52;;;;;;;33.73;17.07;;;0.00;88.90;;;;;;5095700;27;20489;-78
2020/12/10 02:23:18;;;;;;;34.43;17.47;;;0.00;88.90;;;;;;5113471;28;20272;-78
2020/12/10 02:25:44;;;;;;;35.73;17.43;;;0.00;89.00;;;;;;5130859;28;20550;-78
2020/12/10 02:28:12;;;;;;;31.07;16.57;;;0.10;89.10;;;;;;5112578;28;20035;-78
2020/12/10 02:30:38;;;;;;;30.33;15.87;;;0.00;89.10;;;;;;5130978;28;20062;-78
2020/12/10 02:33:06;;;;;;;33.87;17.77;;;-0.10;89.20;;;;;;5096287;28;20019;-78
2020/12/10 02:35:32;;;;;;;33.00;17.37;;;-0.20;89.20;;;;;;5112418;28;20126;-78
2020/12/10 02:38:00;;;;;;;34.77;17.70;;;-0.30;89.30;;;;;;5130005;28;20043;-78
2020/12/10 02:40:28;;;;;;;34.13;16.17;;;-0.30;89.50;;;;;;5095775;28;20035;-78
2020/12/10 02:42:55;;;;;;;34.70;16.53;;;-0.30;89.50;;;;;;5111183;28;20338;-78
2020/12/10 02:45:21;;;;;;;35.80;17.10;;;-0.30;89.60;;;;;;5095805;28;20425;-77
2020/12/10 02:47:47;;;;;;;40.07;18.03;;;-0.30;89.50;;;;;;5095137;28;20117;-78
2020/12/10 02:50:13;;;;;;;33.37;16.57;;;-0.30;89.60;;;;;;5095533;28;20039;-78
2020/12/10 02:52:39;;;;;;;36.40;17.27;;;-0.40;89.60;;;;;;5095317;28;20035;-78
2020/12/10 02:55:05;;;;;;;35.77;17.33;;;-0.40;89.60;;;;;;5095117;28;20287;-77
2020/12/10 02:57:31;;;;;;;34.10;16.60;;;-0.40;89.60;;;;;;5112865;28;20030;-77
2020/12/10 02:59:56;;;;;;;33.30;16.80;;;-0.50;89.70;;;;;;5111126;28;20038;-77
2020/12/10 03:02:22;;;;;;;36.23;16.80;;;-0.50;89.70;;;;;;5112930;28;20268;-77
2020/12/10 03:04:48;;;;;;;37.93;17.67;;;-0.40;89.80;;;;;;5094791;28;20024;-78
2020/12/10 03:07:14;;;;;;;34.80;16.93;;;-0.40;89.70;;;;;;5096064;28;20114;-78
2020/12/10 03:09:44;;;;;;;34.73;16.70;;;-0.30;89.80;;;;;;5112805;28;20352;-77
2020/12/10 03:12:10;;;;;;;33.80;16.43;;;-0.30;89.70;;;;;;5131277;28;20365;-77
2020/12/10 03:14:36;;;;;;;28.53;14.83;;;-0.30;89.80;;;;;;5113167;28;20068;-77
2020/12/10 03:17:02;;;;;;;29.93;15.07;;;-0.30;89.70;;;;;;5111964;28;20307;-77
2020/12/10 03:19:28;;;;;;;30.13;15.67;;;-0.20;89.60;;;;;;5112862;28;20050;-77
2020/12/10 03:21:53;;;;;;;31.27;15.60;;;-0.20;89.50;;;;;;5095353;28;20027;-77
2020/12/10 03:24:19;;;;;;;29.70;15.93;;;-0.30;89.40;;;;;;5112867;28;20027;-77
2020/12/10 03:26:45;;;;;;;30.60;15.57;;;-0.30;89.50;;;;;;5095340;28;20273;-77
2020/12/10 03:29:11;;;;;;;27.00;14.43;;;-0.30;89.60;;;;;;5112318;27;20031;-77
2020/12/10 03:31:37;;;;;;;31.13;15.80;;;-0.30;89.70;;;;;;5089216;28;20108;-78
2020/12/10 03:34:04;;;;;;;29.70;15.60;;;-0.30;89.80;;;;;;5095544;28;20788;-77
2020/12/10 03:36:50;;;;;;;29.50;14.27;;;-0.30;89.70;;;;;;5095702;28;20031;-77
2020/12/10 03:39:18;;;;;;;26.37;14.27;;;-0.20;89.80;;;;;;5106319;27;20288;-77
2020/12/10 03:41:44;;;;;;;30.53;14.77;;;-0.10;89.70;;;;;;5116018;27;20039;-76
2020/12/10 03:44:10;;;;;;;30.03;14.90;;;-0.20;89.50;;;;;;5115783;27;20489;-77
2020/12/10 03:46:37;;;;;;;27.67;13.87;;;-0.20;89.50;;;;;;5116341;27;20261;-77
2020/12/10 03:49:02;;;;;;;25.87;13.17;;;-0.20;89.60;;;;;;5098523;27;20023;-77
2020/12/10 03:51:28;;;;;;;24.73;13.87;;;-0.30;89.50;;;;;;5116675;27;20031;-77
2020/12/10 03:53:53;;;;;;;25.53;13.33;;;-0.30;89.60;;;;;;5115414;27;20035;-77
2020/12/10 03:56:19;;;;;;;30.07;13.90;;;-0.30;89.60;;;;;;5133953;27;20102;-77
2020/12/10 03:58:45;;;;;;;27.37;14.03;;;-0.30;89.70;;;;;;5097647;27;20067;-77
2020/12/10 04:01:12;;;;;;;29.33;14.33;;;-0.20;89.80;;;;;;5134268;27;20051;-77
2020/12/10 04:03:38;;;;;;;30.17;14.07;;;-0.10;89.70;;;;;;5082337;27;20031;-76
2020/12/10 04:06:03;;;;;;;29.27;14.37;;;0.20;90.00;;;;;;5115047;27;20035;-77
2020/12/10 04:08:29;;;;;;;26.00;12.67;;;0.20;89.70;;;;;;5115890;27;20695;-76
2020/12/10 04:10:54;;;;;;;28.00;13.67;;;0.10;89.40;;;;;;5114681;27;20505;-77
2020/12/10 04:13:21;;;;;;;24.43;13.03;;;0.10;89.20;;;;;;5115634;27;20035;-77
2020/12/10 04:15:47;;;;;;;26.30;13.30;;;0.10;89.30;;;;;;5132451;27;20106;-77
2020/12/10 04:18:12;;;;;;;28.47;14.20;;;0.20;89.20;;;;;;5133356;27;20118;-77
2020/12/10 04:20:38;;;;;;;27.27;13.03;;;0.30;89.60;;;;;;5133734;27;20536;-77
2020/12/10 04:23:03;;;;;;;26.27;13.20;;;0.30;89.30;;;;;;5114638;27;20689;-77
2020/12/10 04:25:29;;;;;;;19.80;11.73;;;0.30;89.20;;;;;;5081515;27;20031;-76
2020/12/10 04:27:55;;;;;;;22.43;11.53;;;0.30;89.00;;;;;;5097803;27;20091;-77
2020/12/10 04:30:21;;;;;;;23.10;12.63;;;0.20;89.00;;;;;;5064475;28;20039;-77
2020/12/10 04:32:51;;;;;;;23.50;13.17;;;0.30;89.40;;;;;;5077202;28;20028;-76
2020/12/10 04:35:16;;;;;;;23.33;11.80;;;0.30;89.20;;;;;;5112133;28;20806;-77
2020/12/10 04:37:42;;;;;;;22.47;12.03;;;0.10;89.00;;;;;;5103928;27;20062;-77
2020/12/10 04:40:08;;;;;;;26.50;13.57;;;0.10;89.30;;;;;;5137795;27;20047;-77
2020/12/10 04:42:35;;;;;;;27.43;13.87;;;0.20;89.50;;;;;;5129161;27;20046;-77
2020/12/10 04:45:00;;;;;;;23.27;12.60;;;0.30;89.30;;;;;;5149543;27;20007;-78
2020/12/10 04:47:30;;;;;;;25.33;12.97;;;0.20;88.40;;;;;;5114930;27;20031;-77
2020/12/10 04:50:00;;;;;;;25.63;13.67;;;0.00;88.40;;;;;;5123590;27;20034;-76
2020/12/10 04:52:27;;;;;;;25.30;13.63;;;-0.10;88.60;;;;;;5115587;27;20019;-76
2020/12/10 04:54:52;;;;;;;25.30;13.80;;;-0.20;88.80;;;;;;5132542;27;20094;-77
2020/12/10 04:57:20;;;;;;;29.53;14.60;;;-0.20;89.10;;;;;;5132192;27;20031;-76
2020/12/10 04:59:46;;;;;;;27.93;13.57;;;-0.10;89.40;;;;;;5132322;27;20030;-77
2020/12/10 05:02:12;;;;;;;26.63;14.00;;;-0.20;89.20;;;;;;5114403;27;20505;-76
2020/12/10 05:04:39;;;;;;;31.70;16.23;;;-0.20;89.30;;;;;;5115026;27;20050;-77
2020/12/10 05:07:05;;;;;;;30.90;15.73;;;-0.20;89.50;;;;;;5131684;27;20035;-76
2020/12/10 05:09:31;;;;;;;29.93;15.37;;;-0.10;89.50;;;;;;5113565;27;20042;-76
2020/12/10 05:11:59;;;;;;;33.93;16.20;;;-0.10;89.10;;;;;;5096366;27;20046;-77
2020/12/10 05:14:25;;;;;;;31.03;16.30;;;-0.10;89.20;;;;;;5114342;27;20034;-77
2020/12/10 05:17:10;;;;;;;31.80;15.70;;;-0.10;89.40;;;;;;5113519;27;20019;-77
2020/12/10 05:19:36;;;;;;;32.63;16.50;;;-0.10;89.30;;;;;;5114029;27;20050;-77
2020/12/10 05:22:04;;;;;;;29.40;14.77;;;-0.10;89.30;;;;;;5115884;27;20035;-77
2020/12/10 05:24:31;;;;;;;28.70;15.73;;;-0.10;89.50;;;;;;5114586;27;20080;-77
2020/12/10 05:27:23;;;;;;;35.33;16.27;;;-0.10;89.50;;;;;;5113627;27;20068;-77
2020/12/10 05:29:50;;;;;;;33.53;15.93;;;0.00;89.60;;;;;;5131827;27;20042;-76
2020/12/10 05:32:41;;;;;;;33.10;16.73;;;0.00;89.10;;;;;;5097386;27;20409;-77
2020/12/10 05:35:15;;;;;;;32.43;17.17;;;-0.10;89.10;;;;;;5113454;27;20015;-76
2020/12/10 05:37:40;;;;;;;33.50;16.87;;;-0.20;89.30;;;;;;5113797;27;20038;-76
2020/12/10 05:40:07;;;;;;;35.50;18.63;;;-0.30;89.30;;;;;;5092720;28;20035;-77
2020/12/10 05:42:42;;;;;;;38.73;18.13;;;-0.20;89.50;;;;;;5110846;27;20038;-77
2020/12/10 05:45:13;;;;;;;35.40;17.90;;;-0.30;89.40;;;;;;5131716;27;20452;-77
2020/12/10 05:47:55;;;;;;;39.77;20.37;;;-0.50;89.40;;;;;;5113772;27;20272;-76
2020/12/10 05:50:24;;;;;;;45.67;21.30;;;-0.60;89.50;;;;;;5113553;27;20467;-77
2020/12/10 05:53:04;;;;;;;49.27;21.10;;;-0.50;90.00;;;;;;5130912;27;20268;-78
2020/12/10 05:55:31;;;;;;;43.93;20.50;;;-0.30;90.10;;;;;;5113032;27;20371;-76
2020/12/10 05:57:57;;;;;;;39.87;19.17;;;-0.20;90.00;;;;;;5112165;27;20375;-77
2020/12/10 06:00:23;;;;;;;35.30;19.13;;;-0.20;89.90;;;;;;5092642;28;20381;-77
2020/12/10 06:02:50;;;;;;;38.33;18.87;;;-0.20;89.70;;;;;;5111469;28;20119;-78
2020/12/10 06:05:17;;;;;;;37.10;18.50;;;-0.30;89.60;;;;;;5093060;28;20031;-77
2020/12/10 06:08:03;;;;;;;36.43;19.10;;;-0.30;89.60;;;;;;5114039;27;20031;-76
2020/12/10 06:10:30;;;;;;;47.83;21.80;;;-0.30;89.90;;;;;;5097357;27;20024;-77
2020/12/10 06:12:58;;;;;;;37.20;18.70;;;-0.20;89.80;;;;;;5113033;28;20026;-77
2020/12/10 06:15:25;;;;;;;41.53;20.93;;;-0.20;89.60;;;;;;5131742;27;20106;-77
2020/12/10 06:18:01;;;;;;;38.97;20.43;;;0.00;89.90;;;;;;5112873;28;20080;-77
2020/12/10 06:20:31;;;;;;;36.07;18.70;;;-0.10;89.60;;;;;;5113486;27;20031;-76
2020/12/10 06:23:22;;;;;;;36.50;19.37;;;-0.20;89.50;;;;;;5095495;27;20031;-77
2020/12/10 06:25:48;;;;;;;41.87;21.10;;;-0.20;89.60;;;;;;5131835;27;20398;-77
2020/12/10 06:28:32;;;;;;;48.43;21.93;;;-0.20;89.50;;;;;;5111954;28;20035;-76
2020/12/10 06:31:09;;;;;;;42.33;20.43;;;-0.20;89.50;;;;;;5112244;28;20034;-76
2020/12/10 06:33:38;;;;;;;39.40;19.40;;;-0.20;89.50;;;;;;5131238;28;20027;-77
2020/12/10 06:36:24;;;;;;;42.80;21.50;;;-0.20;89.30;;;;;;5130483;28;20458;-77
2020/12/10 06:38:51;;;;;;;38.03;19.60;;;0.00;89.50;;;;;;5095903;28;20036;-76
2020/12/10 06:41:18;;;;;;;37.67;19.77;;;0.00;89.40;;;;;;5095723;28;20030;-77
2020/12/10 06:43:43;;;;;;;39.10;20.43;;;0.00;89.30;;;;;;5112952;28;20100;-77
2020/12/10 06:46:09;;;;;;;40.33;21.20;;;-0.10;89.00;;;;;;5111305;28;20028;-77
2020/12/10 06:48:41;;;;;;;37.93;19.37;;;-0.10;89.30;;;;;;5112792;28;20035;-77
2020/12/10 06:51:18;;;;;;;37.60;20.27;;;0.00;89.20;;;;;;5111908;28;20073;-77
2020/12/10 06:54:13;;;;;;;39.20;20.57;;;-0.10;88.80;;;;;;5131699;28;20031;-76
2020/12/10 06:57:00;;;;;;;45.60;22.97;;;-0.10;88.90;;;;;;5117249;28;20091;-76
2020/12/10 06:59:43;;;;;;;56.67;25.63;;;-0.20;89.10;;;;;;5111713;28;20035;-77
2020/12/10 07:02:14;;;;;;;44.38;22.20;;;-0.20;89.40;;;;;;5110857;28;20621;-77
2020/12/10 07:04:48;;;;;;;43.10;20.53;;;0.00;89.60;;;;;;5112829;27;20076;-76
2020/12/10 07:07:20;;;;;;;39.63;20.97;;;0.10;89.70;;;;;;5134059;27;20071;-77
2020/12/10 07:09:49;;;;;;;42.17;21.88;;;0.10;89.30;;;;;;5116299;27;20058;-76
2020/12/10 07:12:20;;;;;;;40.13;21.00;;;0.10;89.50;;;;;;5115343;27;20033;-75
2020/12/10 07:14:46;;;;;;;40.87;20.40;;;0.30;89.90;;;;;;5116042;27;20045;-75
2020/12/10 07:17:12;;;;;;;41.50;21.50;;;0.40;89.80;;;;;;5115161;27;20423;-76
2020/12/10 07:19:38;;;;;;;39.07;21.37;;;0.50;89.90;;;;;;5114384;27;20042;-76
2020/12/10 07:22:03;;;;;;;36.57;19.83;;;0.60;89.60;;;;;;5133361;27;20476;-76
2020/12/10 07:24:29;;;;;;;40.40;20.10;;;0.60;89.40;;;;;;5115623;27;20121;-76
2020/12/10 07:26:55;;;;;;;40.33;20.47;;;0.50;89.10;;;;;;5092958;28;20085;-76
2020/12/10 07:29:20;;;;;;;38.50;20.77;;;0.40;89.20;;;;;;5109097;27;20039;-76
2020/12/10 07:31:46;;;;;;;46.77;21.23;;;0.30;89.20;;;;;;5115531;27;20031;-76
2020/12/10 07:34:12;;;;;;;44.20;23.10;;;0.30;89.40;;;;;;5097702;27;20027;-76
2020/12/10 07:36:50;;;;;;;41.70;21.87;;;0.30;89.70;;;;;;5116844;27;20422;-76
2020/12/10 07:39:32;;;;;;;45.50;23.20;;;0.30;89.40;;;;;;5139833;27;20027;-76
2020/12/10 07:41:58;;;;;;;45.03;22.83;;;0.40;89.50;;;;;;5113771;27;20019;-75
2020/12/10 07:44:29;;;;;;;44.60;22.10;;;0.40;89.30;;;;;;5125545;27;20031;-76
2020/12/10 07:46:58;;;;;;;43.22;22.17;;;0.40;89.10;;;;;;5107359;27;20091;-76
2020/12/10 07:49:25;;;;;;;44.80;23.43;;;0.50;89.60;;;;;;5114002;27;20544;-75
2020/12/10 07:52:12;;;;;;;45.63;23.70;;;0.50;89.50;;;;;;5090869;27;20035;-76
2020/12/10 07:54:48;;;;;;;46.63;23.07;;;0.50;90.00;;;;;;5083746;27;20035;-77
2020/12/10 07:57:39;;;;;;;53.70;25.97;;;0.50;90.00;;;;;;5116852;27;20507;-76
2020/12/10 08:00:11;;;;;;;44.07;23.47;;;0.60;90.50;;;;;;5107604;28;20139;-77
2020/12/10 08:02:46;;;;;;;49.93;25.70;;;0.80;90.60;;;;;;5095495;28;20580;-77
2020/12/10 08:05:18;;;;;;;49.13;26.03;;;1.00;90.40;;;;;;5104052;28;20027;-78
2020/12/10 08:07:55;;;;;;;45.53;24.97;;;1.40;90.60;;;;;;5091357;28;20039;-77
2020/12/10 08:10:27;;;;;;;43.23;24.20;;;1.90;89.10;;;;;;5057081;28;20032;-77
2020/12/10 08:13:16;;;;;;;41.83;23.60;;;2.30;86.80;;;;;;5094740;28;20027;-78
2020/12/10 08:15:48;;;;;;;44.73;23.73;;;2.50;83.20;;;;;;5111586;28;20059;-78
2020/12/10 08:18:17;;;;;;;39.10;23.30;;;2.50;80.90;;;;;;5109768;28;20036;-78
2020/12/10 08:20:44;;;;;;;41.53;23.73;;;2.60;81.00;;;;;;5101285;28;20027;-77
2020/12/10 08:23:11;;;;;;;40.83;23.03;;;2.90;80.10;;;;;;5101687;28;20110;-77
2020/12/10 08:25:38;;;;;;;38.80;21.27;;;3.20;80.20;;;;;;5102535;28;20028;-76
2020/12/10 08:28:05;;;;;;;36.87;22.00;;;3.30;78.50;;;;;;5108744;28;20028;-77
2020/12/10 08:30:31;;;;;;;38.20;22.47;;;3.20;77.40;;;;;;5111540;28;20027;-76
2020/12/10 08:32:58;;;;;;;35.43;21.67;;;3.30;78.30;;;;;;5094265;28;20038;-76
2020/12/10 08:35:25;;;;;;;37.50;21.23;;;3.40;77.40;;;;;;5110180;28;20490;-76
2020/12/10 08:37:51;;;;;;;36.27;21.30;;;3.40;77.20;;;;;;5106005;28;20028;-76
2020/12/10 08:40:28;;;;;;;38.20;21.53;;;3.50;76.70;;;;;;5105977;28;20031;-77
2020/12/10 08:43:06;;;;;;;38.57;22.00;;;3.90;76.30;;;;;;5101287;28;20024;-77
2020/12/10 08:45:34;;;;;;;35.53;22.07;;;4.40;75.00;;;;;;5091857;28;20039;-77
2020/12/10 08:48:02;;;;;;;38.53;23.47;;;4.70;73.90;;;;;;5086420;28;20151;-77
2020/12/10 08:50:29;;;;;;;34.80;20.77;;;4.90;72.60;;;;;;5102966;28;20057;-77
2020/12/10 08:53:01;;;;;;;42.23;24.33;;;4.80;72.10;;;;;;5094070;28;20542;-77
2020/12/10 08:55:35;;;;;;;45.77;27.80;;;4.50;72.80;;;;;;5104610;28;20032;-77
2020/12/10 08:58:00;;;;;;;45.70;23.67;;;4.20;74.10;;;;;;5105041;28;20034;-78
2020/12/10 09:00:35;;;;;;;35.67;22.27;;;4.10;74.30;;;;;;5089347;28;20387;-78
2020/12/10 09:03:01;;;;;;;34.77;21.63;;;3.80;74.70;;;;;;5106306;28;20024;-77
2020/12/10 09:05:29;;;;;;;34.60;21.13;;;3.50;75.00;;;;;;5106450;28;20046;-79
2020/12/10 09:07:54;;;;;;;45.50;26.50;;;3.20;75.60;;;;;;5107933;28;20367;-78
2020/12/10 09:10:20;;;;;;;37.90;21.90;;;2.90;76.50;;;;;;5086984;28;20028;-79
2020/12/10 09:12:47;;;;;;;41.93;23.80;;;2.90;77.50;;;;;;5103268;28;20036;-78
2020/12/10 09:15:13;;;;;;;43.20;25.93;;;2.80;78.10;;;;;;5103389;28;20463;-78
2020/12/10 09:17:40;;;;;;;48.37;27.83;;;2.70;78.60;;;;;;5067299;28;20042;-78
2020/12/10 09:20:06;;;;;;;47.50;24.83;;;2.80;79.60;;;;;;5099522;28;20055;-77
2020/12/10 09:22:32;;;;;;;39.03;22.30;;;2.80;79.10;;;;;;5088491;28;20036;-76
2020/12/10 09:24:57;;;;;;;45.63;26.07;;;2.80;78.90;;;;;;5110163;28;20023;-77
2020/12/10 09:27:28;;;;;;;43.57;24.43;;;2.70;78.90;;;;;;5106968;28;20035;-78
2020/12/10 09:29:54;;;;;;;38.77;22.90;;;2.60;79.00;;;;;;5109743;28;20422;-78
2020/12/10 09:32:20;;;;;;;55.50;29.93;;;2.60;79.40;;;;;;5091580;28;20031;-78
2020/12/10 09:34:49;;;;;;;43.53;24.40;;;2.50;79.80;;;;;;5109431;28;20039;-78
2020/12/10 09:37:14;;;;;;;47.43;27.00;;;2.50;79.40;;;;;;5074548;28;20062;-79
2020/12/10 09:39:43;;;;;;;44.97;24.57;;;2.40;80.10;;;;;;5092081;28;20040;-78
2020/12/10 09:42:09;;;;;;;53.60;28.33;;;2.40;80.50;;;;;;5086004;28;20378;-78
2020/12/10 09:44:34;;;;;;;49.47;26.17;;;2.30;80.90;;;;;;5110672;28;20102;-78
2020/12/10 09:47:01;;;;;;;49.17;27.97;;;2.30;80.50;;;;;;5075324;28;20030;-79
2020/12/10 09:49:27;;;;;;;47.73;25.13;;;2.10;80.50;;;;;;5098658;28;20048;-78
2020/12/10 09:51:57;;;;;;;46.97;26.43;;;2.10;80.90;;;;;;5069405;28;20363;-79
2020/12/10 09:54:39;;;;;;;53.00;28.20;;;2.20;81.10;;;;;;5101644;28;20088;-79
2020/12/10 09:57:10;;;;;;;46.47;27.23;;;2.20;81.50;;;;;;5094244;28;20032;-77
2020/12/10 09:59:38;;;;;;;50.30;27.47;;;2.10;81.00;;;;;;5094968;28;20036;-78
2020/12/10 10:02:04;;;;;;;65.87;34.43;;;2.20;81.70;;;;;;5096498;28;20141;-79
2020/12/10 10:04:45;;;;;;;57.83;31.50;;;2.10;81.40;;;;;;5110831;28;20056;-79
2020/12/10 10:07:10;;;;;;;63.27;33.77;;;2.30;82.50;;;;;;5107532;28;20047;-79
2020/12/10 10:09:38;;;;;;;71.73;37.57;;;2.40;82.80;;;;;;5108838;28;20550;-79
2020/12/10 10:12:05;;;;;;;80.07;38.63;;;2.40;82.20;;;;;;5089175;28;20028;-78
2020/12/10 10:14:31;;;;;;;53.17;28.77;;;2.70;83.60;;;;;;5108009;28;20546;-78
2020/12/10 10:16:57;;;;;;;53.10;28.00;;;2.70;81.90;;;;;;5109649;27;20423;-78
2020/12/10 10:19:25;;;;;;;48.23;26.40;;;2.60;80.30;;;;;;5066505;28;20071;-79
2020/12/10 10:21:50;;;;;;;48.77;26.23;;;2.50;80.70;;;;;;5087871;28;20050;-76
2020/12/10 10:24:16;;;;;;;48.33;28.30;;;2.30;80.70;;;;;;5103866;28;20547;-77
2020/12/10 10:26:43;;;;;;;54.90;29.57;;;2.20;80.60;;;;;;5101898;28;20475;-78
2020/12/10 10:29:10;;;;;;;47.80;26.23;;;2.20;81.30;;;;;;5082006;28;20038;-74
2020/12/10 10:31:36;;;;;;;52.23;29.43;;;2.20;81.00;;;;;;5102332;28;20027;-77
2020/12/10 10:34:01;;;;;;;48.30;26.77;;;2.20;81.40;;;;;;5069569;28;20399;-78
2020/12/10 10:36:27;;;;;;;55.77;30.63;;;2.10;81.40;;;;;;5097807;28;20585;-78
2020/12/10 10:38:53;;;;;;;55.47;30.57;;;2.10;81.80;;;;;;5083616;28;20475;-77
2020/12/10 10:41:22;;;;;;;58.33;30.27;;;2.10;82.10;;;;;;5103041;28;20031;-78
2020/12/10 10:43:56;;;;;;;52.67;29.07;;;2.30;82.20;;;;;;5100566;28;20031;-78
2020/12/10 10:46:42;;;;;;;52.20;29.27;;;2.30;81.50;;;;;;5100543;28;20032;-78
2020/12/10 10:49:08;;;;;;;61.87;31.33;;;2.20;81.50;;;;;;5086666;28;20525;-78
2020/12/10 10:51:34;;;;;;;54.97;28.43;;;2.20;81.90;;;;;;5101574;28;20035;-77
2020/12/10 10:54:00;;;;;;;48.23;28.40;;;2.30;82.00;;;;;;5089618;28;20480;-77
2020/12/10 10:56:29;;;;;;;57.73;29.80;;;2.30;81.80;;;;;;5111571;28;20055;-78
2020/12/10 10:58:55;;;;;;;59.10;30.30;;;2.20;82.10;;;;;;5094998;28;20105;-78
2020/12/10 11:01:31;;;;;;;59.43;31.93;;;2.20;81.60;;;;;;5109379;28;20055;-78
2020/12/10 11:03:59;;;;;;;52.27;28.57;;;2.30;82.10;;;;;;5106311;28;20038;-77
2020/12/10 11:06:25;;;;;;;56.60;30.33;;;2.20;81.60;;;;;;5068628;28;20529;-78
2020/12/10 11:08:50;;;;;;;56.80;30.63;;;2.20;81.90;;;;;;5096769;28;20036;-78
2020/12/10 11:11:21;;;;;;;53.27;28.73;;;2.20;81.90;;;;;;5109530;28;20050;-79
2020/12/10 11:13:47;;;;;;;52.07;29.13;;;2.30;82.20;;;;;;5110122;28;20047;-77
2020/12/10 11:16:14;;;;;;;57.67;30.33;;;2.40;82.50;;;;;;5110821;28;20115;-77
2020/12/10 11:18:44;;;;;;;53.63;27.53;;;2.50;82.50;;;;;;5094048;28;20058;-78
2020/12/10 11:21:11;;;;;;;57.80;31.57;;;2.50;81.30;;;;;;5111746;28;20023;-76
2020/12/10 11:23:38;;;;;;;51.60;27.70;;;2.50;81.60;;;;;;5111332;28;20080;-77
2020/12/10 11:26:04;;;;;;;51.70;28.70;;;2.50;81.50;;;;;;5111868;28;20020;-78
2020/12/10 11:28:29;;;;;;;52.70;28.53;;;2.40;81.70;;;;;;5110199;28;20031;-78
2020/12/10 11:30:56;;;;;;;55.97;30.20;;;2.50;82.20;;;;;;5112239;28;20524;-77
2020/12/10 11:33:25;;;;;;;49.60;28.60;;;2.80;82.70;;;;;;5082453;28;20043;-77
2020/12/10 11:35:52;;;;;;;49.57;28.07;;;2.90;82.10;;;;;;5077844;28;20054;-78
2020/12/10 11:38:18;;;;;;;51.30;27.93;;;2.80;81.60;;;;;;5109228;28;20046;-78
2020/12/10 11:40:46;;;;;;;53.17;28.30;;;2.80;81.70;;;;;;5110353;28;20057;-78
2020/12/10 11:43:11;;;;;;;49.43;27.57;;;2.70;81.30;;;;;;5079608;28;20063;-77
2020/12/10 11:46:01;;;;;;;56.60;30.67;;;2.60;81.20;;;;;;5118918;28;20020;-77
2020/12/10 11:48:27;;;;;;;51.90;29.50;;;2.70;81.70;;;;;;5121729;28;20035;-78
2020/12/10 11:50:54;;;;;;;53.13;30.60;;;2.80;82.00;;;;;;5123824;28;20099;-78
2020/12/10 11:53:20;;;;;;;54.80;29.93;;;2.90;82.10;;;;;;5105712;28;20024;-78
2020/12/10 11:55:46;;;;;;;52.70;27.43;;;3.10;82.20;;;;;;5104264;28;20077;-77
2020/12/10 11:58:12;;;;;;;45.73;27.13;;;2.90;80.40;;;;;;5123978;28;20048;-76
2020/12/10 12:00:58;;;;;;;45.50;26.40;;;2.60;80.80;;;;;;5117284;28;20066;-78
2020/12/10 12:03:27;;;;;;;49.70;27.63;;;2.60;81.20;;;;;;5111039;28;20071;-78
2020/12/10 12:05:53;;;;;;;48.27;27.00;;;2.70;81.90;;;;;;5077874;28;20466;-78
2020/12/10 12:08:24;;;;;;;51.37;28.90;;;2.70;81.80;;;;;;5108692;28;20092;-78
2020/12/10 12:11:10;;;;;;;47.50;26.67;;;2.80;81.20;;;;;;5078263;28;20340;-78
2020/12/10 12:13:36;;;;;;;51.00;28.37;;;2.70;80.90;;;;;;5076483;28;20028;-78
2020/12/10 12:16:01;;;;;;;49.67;27.27;;;2.70;81.30;;;;;;5100495;28;20483;-78
2020/12/10 12:18:28;;;;;;;54.47;27.87;;;2.50;81.30;;;;;;5105901;28;20031;-78
2020/12/10 12:20:53;;;;;;;51.83;29.10;;;2.40;81.30;;;;;;5089571;28;20127;-78
2020/12/10 12:23:24;;;;;;;52.03;27.40;;;2.20;81.80;;;;;;5093853;28;20115;-77
2020/12/10 12:25:50;;;;;;;56.30;28.83;;;2.40;82.70;;;;;;5085697;28;20122;-77
2020/12/10 12:28:15;;;;;;;52.27;27.87;;;2.70;83.20;;;;;;5094541;28;20130;-76
2020/12/10 12:30:41;;;;;;;46.60;27.33;;;2.90;83.30;;;;;;5101479;28;21214;-77
2020/12/10 12:33:06;;;;;;;45.27;26.13;;;2.90;81.70;;;;;;5100588;28;20031;-76
2020/12/10 12:35:35;;;;;;;49.50;26.63;;;2.70;80.90;;;;;;5075192;28;20748;-76
2020/12/10 12:38:03;;;;;;;46.97;25.90;;;2.70;81.50;;;;;;5096011;28;20522;-77
2020/12/10 12:40:29;;;;;;;47.27;27.07;;;2.70;82.00;;;;;;5073134;28;20043;-77